Time;durP1;ratioP1;P1;durP2;ratioP2;P2;SDS_P1;SDS_P2;PMS_P1;PMS_P2;Temp;Humidity;BMP_temperature;BMP_pressure;BME280_temperature;BME280_humidity;BME280_pressure;Samples;Min_cycle;Max_cycle;Signal;HPM_P1;HPM_P2
2022/09/20 00:01:46;;;;;;;0.10;0.10;;;;;;;10.34;94.94;99153.66;5071203;28;20234;-81
2022/09/20 00:04:13;;;;;;;0.10;0.10;;;;;;;10.27;95.09;99148.19;5071991;28;20198;-81
2022/09/20 00:06:41;;;;;;;0.10;0.10;;;;;;;10.32;94.88;99150.41;5071832;28;20214;-81
2022/09/20 00:09:08;;;;;;;0.10;0.10;;;;;;;10.31;95.10;99151.34;5073555;28;20764;-81
2022/09/20 00:11:36;;;;;;;0.20;0.20;;;;;;;10.32;95.00;99155.50;5073214;28;20228;-81
2022/09/20 00:14:07;;;;;;;0.20;0.20;;;;;;;10.30;94.94;99152.25;5073047;28;20198;-81
2022/09/20 00:16:37;;;;;;;0.10;0.10;;;;;;;10.25;95.01;99155.09;5072650;28;20296;-81
2022/09/20 00:19:06;;;;;;;0.07;0.07;;;;;;;10.26;95.11;99163.56;5071733;28;20227;-81
2022/09/20 00:21:36;;;;;;;0.10;0.10;;;;;;;10.24;94.96;99162.84;5071168;28;20229;-80
2022/09/20 00:24:05;;;;;;;0.10;0.10;;;;;;;10.27;94.89;99160.97;5071599;28;20202;-80
2022/09/20 00:26:32;;;;;;;0.07;0.07;;;;;;;10.18;94.97;99149.59;5071362;28;20257;-81
2022/09/20 00:29:00;;;;;;;0.30;0.30;;;;;;;10.16;94.83;99138.66;5074866;28;20209;-81
2022/09/20 00:31:27;;;;;;;0.57;0.57;;;;;;;10.16;94.54;99136.13;5075023;28;20276;-81
2022/09/20 00:36:39;;;;;;;0.60;0.60;;;;;;;10.16;94.21;99143.78;5077178;28;20241;-81
2022/09/20 00:39:07;;;;;;;0.77;0.77;;;;;;;10.15;93.91;99144.72;5077504;28;20199;-81
2022/09/20 00:41:34;;;;;;;0.63;0.63;;;;;;;10.17;93.79;99145.41;5076778;28;20217;-81
2022/09/20 00:44:02;;;;;;;1.50;0.80;;;;;;;10.23;93.32;99141.59;5077151;28;20198;-81
2022/09/20 00:46:35;;;;;;;0.77;0.77;;;;;;;10.23;93.22;99146.72;5075319;28;20260;-81
2022/09/20 00:49:12;;;;;;;1.17;1.17;;;;;;;10.18;93.25;99143.66;5076041;28;20202;-81
2022/09/20 00:51:43;;;;;;;1.80;1.00;;;;;;;10.10;93.26;99140.84;5075314;28;20226;-81
2022/09/20 00:54:13;;;;;;;1.10;0.90;;;;;;;10.14;92.86;99135.41;5074868;28;20202;-81
2022/09/20 00:56:42;;;;;;;0.90;0.90;;;;;;;10.18;92.61;99139.38;5075644;28;20218;-80
2022/09/20 00:59:17;;;;;;;0.60;0.60;;;;;;;10.11;92.49;99133.06;5074509;28;20202;-80
2022/09/20 01:01:46;;;;;;;0.83;0.40;;;;;;;10.07;92.48;99126.53;5074456;28;20225;-80
2022/09/20 01:04:15;;;;;;;0.43;0.23;;;;;;;10.06;92.47;99127.44;5079102;28;20437;-81
2022/09/20 01:06:45;;;;;;;0.20;0.20;;;;;;;10.04;92.27;99125.94;5077745;28;20230;-81
2022/09/20 01:09:15;;;;;;;0.67;0.40;;;;;;;10.10;91.72;99131.44;5076844;28;20205;-81
2022/09/20 01:11:42;;;;;;;0.13;0.13;;;;;;;10.10;91.40;99134.00;5076171;28;20221;-81
2022/09/20 01:14:09;;;;;;;0.10;0.10;;;;;;;10.06;91.73;99132.56;5075487;28;20205;-80
2022/09/20 01:16:37;;;;;;;0.10;0.10;;;;;;;10.07;91.43;99129.09;5075381;28;20226;-81
2022/09/20 01:19:14;;;;;;;0.40;0.40;;;;;;;10.03;91.61;99125.09;5074906;28;20198;-80
2022/09/20 01:21:44;;;;;;;0.10;0.10;;;;;;;10.00;91.40;99120.22;5074357;28;20713;-81
2022/09/20 01:24:22;;;;;;;0.30;0.30;;;;;;;10.00;91.25;99125.31;5074975;28;20835;-80
2022/09/20 01:27:00;;;;;;;0.10;0.10;;;;;;;10.02;91.25;99115.00;5073971;28;20713;-80
2022/09/20 01:29:41;;;;;;;0.37;0.37;;;;;;;9.99;91.04;99110.94;5073864;28;20584;-80
2022/09/20 01:32:12;;;;;;;0.50;0.50;;;;;;;9.93;91.14;99113.91;5074444;28;20233;-80
2022/09/20 01:34:46;;;;;;;0.43;0.43;;;;;;;9.98;91.34;99116.97;5076027;28;20203;-80
2022/09/20 01:37:19;;;;;;;0.10;0.10;;;;;;;9.91;91.21;99124.22;5077462;28;20190;-80
2022/09/20 01:39:57;;;;;;;0.50;0.50;;;;;;;9.94;91.12;99115.53;5076335;28;20195;-81
2022/09/20 01:42:29;;;;;;;0.20;0.20;;;;;;;9.89;91.01;99122.69;5076693;28;20194;-81
2022/09/20 01:45:03;;;;;;;0.37;0.20;;;;;;;9.86;91.26;99128.00;5075161;28;20716;-80
2022/09/20 01:47:38;;;;;;;0.30;0.30;;;;;;;9.83;90.90;99123.09;5075420;28;20221;-80
2022/09/20 01:50:27;;;;;;;0.30;0.30;;;;;;;9.88;91.16;99132.09;5074369;28;20661;-80
2022/09/20 01:53:37;;;;;;;0.10;0.10;;;;;;;9.87;90.81;99130.47;5074119;28;20229;-80
2022/09/20 01:56:48;;;;;;;0.20;0.20;;;;;;;9.80;90.89;99138.63;5073397;28;20229;-81
2022/09/20 01:59:41;;;;;;;0.93;0.60;;;;;;;9.84;90.84;99145.19;5074141;28;20208;-80
2022/09/20 02:02:58;;;;;;;0.10;0.10;;;;;;;9.89;90.66;99145.66;5075224;28;20226;-81
2022/09/20 02:06:00;;;;;;;0.17;0.17;;;;;;;9.79;90.73;99148.03;5059056;28;20242;-80
2022/09/20 02:08:51;;;;;;;0.40;0.40;;;;;;;9.81;90.84;99140.28;5075904;28;20599;-81
2022/09/20 02:11:21;;;;;;;1.60;0.37;;;;;;;9.79;90.86;99139.56;5062087;28;20230;-81
2022/09/20 02:14:15;;;;;;;0.27;0.27;;;;;;;9.70;91.03;99139.28;5074714;28;20662;-80
2022/09/20 02:16:50;;;;;;;0.33;0.33;;;;;;;9.68;91.11;99130.88;5074126;28;20245;-81
2022/09/20 02:19:57;;;;;;;0.37;0.37;;;;;;;9.67;90.82;99131.00;5073753;28;20198;-80
2022/09/20 02:22:40;;;;;;;0.30;0.30;;;;;;;9.67;91.00;99134.38;5074282;28;20593;-80
2022/09/20 02:25:20;;;;;;;0.33;0.33;;;;;;;9.73;90.81;99135.69;5072476;28;20234;-80
2022/09/20 02:28:01;;;;;;;0.33;0.33;;;;;;;9.62;90.96;99138.97;5072961;28;20640;-80
2022/09/20 02:30:41;;;;;;;0.10;0.10;;;;;;;9.67;90.75;99144.59;5072155;28;20230;-81
2022/09/20 02:33:28;;;;;;;0.30;0.30;;;;;;;9.67;90.81;99143.78;5076761;28;20209;-81
2022/09/20 02:36:22;;;;;;;0.60;0.60;;;;;;;9.62;90.98;99138.97;5076457;28;20222;-81
2022/09/20 02:39:00;;;;;;;0.40;0.40;;;;;;;9.64;90.94;99139.69;5074427;28;20198;-81
2022/09/20 02:41:54;;;;;;;0.20;0.20;;;;;;;9.58;90.73;99144.41;5074631;28;20237;-81
2022/09/20 02:44:36;;;;;;;0.20;0.20;;;;;;;9.60;90.83;99145.09;5073535;28;20297;-81
2022/09/20 02:47:12;;;;;;;0.20;0.20;;;;;;;9.61;90.32;99150.09;5073428;28;20230;-80
2022/09/20 02:49:54;;;;;;;0.43;0.43;;;;;;;9.48;90.97;99150.13;5074047;28;20209;-81
2022/09/20 02:52:31;;;;;;;0.10;0.10;;;;;;;9.52;90.75;99148.19;5073969;28;20205;-80
2022/09/20 02:55:10;;;;;;;0.40;0.40;;;;;;;9.54;90.78;99151.44;5073466;28;20198;-81
2022/09/20 02:57:50;;;;;;;0.10;0.10;;;;;;;9.58;90.32;99155.41;5073166;28;20674;-80
2022/09/20 03:00:22;;;;;;;0.37;0.37;;;;;;;9.53;90.33;99147.25;5072427;28;20226;-80
2022/09/20 03:03:02;;;;;;;0.23;0.23;;;;;;;9.51;90.44;99147.38;5072245;28;20190;-80
2022/09/20 03:05:37;;;;;;;0.43;0.40;;;;;;;9.45;90.75;99136.72;5076449;28;20607;-81
2022/09/20 03:08:23;;;;;;;0.30;0.30;;;;;;;9.42;90.66;99144.59;5075738;28;20316;-81
2022/09/20 03:11:01;;;;;;;0.63;0.60;;;;;;;9.42;90.34;99142.84;5073795;28;20257;-81
2022/09/20 03:13:43;;;;;;;0.27;0.27;;;;;;;9.34;90.71;99142.56;5073027;28;20289;-80
2022/09/20 03:16:21;;;;;;;0.47;0.33;;;;;;;9.32;90.96;99134.19;5073571;28;20872;-80
2022/09/20 03:19:01;;;;;;;0.53;0.30;;;;;;;9.38;90.90;99138.06;5072737;28;20224;-81
2022/09/20 03:21:40;;;;;;;0.30;0.30;;;;;;;9.43;90.56;99144.50;5072896;28;20606;-80
2022/09/20 03:24:20;;;;;;;0.27;0.27;;;;;;;9.35;90.77;99144.19;5073026;28;20195;-80
2022/09/20 03:26:56;;;;;;;0.67;0.63;;;;;;;9.36;90.56;99139.91;5072856;28;20237;-81
2022/09/20 03:29:38;;;;;;;0.10;0.10;;;;;;;9.30;91.00;99141.94;5071944;28;20206;-81
2022/09/20 03:32:21;;;;;;;0.50;0.50;;;;;;;9.28;90.71;99148.88;5074338;28;20238;-81
2022/09/20 03:34:59;;;;;;;0.30;0.30;;;;;;;9.34;90.88;99154.47;5078140;28;20206;-80
2022/09/20 03:37:40;;;;;;;0.40;0.40;;;;;;;9.34;90.49;99159.59;5074293;28;20703;-81
2022/09/20 03:40:47;;;;;;;0.47;0.47;;;;;;;9.34;90.41;99151.94;5073115;28;20202;-80
2022/09/20 03:43:28;;;;;;;0.50;0.50;;;;;;;9.24;90.69;99157.63;5072706;28;20562;-80
2022/09/20 03:46:12;;;;;;;0.13;0.13;;;;;;;9.22;91.25;99164.59;5072773;28;20238;-81
2022/09/20 03:49:16;;;;;;;0.20;0.20;;;;;;;9.15;91.16;99168.44;5072844;28;20194;-80
2022/09/20 03:51:55;;;;;;;0.10;0.10;;;;;;;9.15;91.34;99163.34;5071756;28;20237;-80
2022/09/20 03:54:56;;;;;;;0.30;0.30;;;;;;;9.24;90.93;99167.84;5071874;28;20214;-81
2022/09/20 03:57:41;;;;;;;0.20;0.20;;;;;;;9.32;90.79;99174.19;5072468;28;20240;-81
2022/09/20 04:00:22;;;;;;;0.50;0.47;;;;;;;9.26;90.66;99171.13;5075298;28;20305;-81
2022/09/20 04:03:28;;;;;;;0.10;0.10;;;;;;;9.25;90.54;99174.59;5077869;28;20198;-80
2022/09/20 04:06:14;;;;;;;0.20;0.20;;;;;;;9.23;90.74;99181.53;5077220;28;20234;-81
2022/09/20 04:08:56;;;;;;;0.20;0.20;;;;;;;9.24;90.67;99183.16;5076906;28;20199;-81
2022/09/20 04:11:30;;;;;;;0.20;0.20;;;;;;;9.27;90.53;99188.06;5076787;28;20244;-81
2022/09/20 04:14:04;;;;;;;0.40;0.23;;;;;;;9.25;90.20;99184.81;5077032;28;20191;-81
2022/09/20 04:16:42;;;;;;;0.20;0.20;;;;;;;9.21;90.60;99193.56;5075894;28;20585;-81
2022/09/20 04:19:17;;;;;;;0.40;0.40;;;;;;;9.15;90.63;99199.06;5076019;28;20198;-81
2022/09/20 04:21:53;;;;;;;0.40;0.40;;;;;;;9.16;90.78;99198.16;5075444;28;20218;-81
2022/09/20 04:24:25;;;;;;;0.30;0.30;;;;;;;9.15;90.95;99193.16;5075094;28;20202;-80
2022/09/20 04:26:58;;;;;;;0.30;0.30;;;;;;;9.26;90.42;99191.53;5076325;28;20702;-81
2022/09/20 04:29:34;;;;;;;0.67;0.63;;;;;;;9.22;90.36;99190.09;5079216;28;20206;-81
2022/09/20 04:32:15;;;;;;;1.40;0.50;;;;;;;9.13;90.82;99194.97;5079238;28;20476;-81
2022/09/20 04:37:34;;;;;;;0.30;0.30;;;;;;;9.18;91.01;99193.75;5076166;28;20194;-80
2022/09/20 04:40:12;;;;;;;0.47;0.47;;;;;;;9.19;90.70;99190.31;5076002;28;20210;-81
2022/09/20 04:43:10;;;;;;;0.30;0.30;;;;;;;9.17;90.68;99201.53;5075717;28;20271;-80
2022/09/20 04:46:03;;;;;;;0.50;0.50;;;;;;;9.23;90.58;99206.22;5075209;28;20233;-80
2022/09/20 04:48:57;;;;;;;0.50;0.40;;;;;;;9.25;90.56;99196.72;5074182;28;20199;-81
2022/09/20 04:52:15;;;;;;;0.30;0.30;;;;;;;9.27;90.34;99208.47;5073983;28;20230;-81
2022/09/20 04:55:30;;;;;;;1.17;0.93;;;;;;;9.32;90.53;99215.03;5076856;28;20214;-81
2022/09/20 04:58:31;;;;;;;0.50;0.50;;;;;;;9.45;90.21;99218.38;5079509;28;20206;-81
2022/09/20 05:01:34;;;;;;;0.70;0.53;;;;;;;9.59;90.26;99225.97;5076794;28;20214;-80
2022/09/20 05:04:39;;;;;;;0.40;0.40;;;;;;;9.86;89.32;99219.94;5076394;28;20209;-81
2022/09/20 05:07:35;;;;;;;0.30;0.30;;;;;;;9.94;88.38;99227.91;5075918;28;20721;-80
2022/09/20 05:10:34;;;;;;;0.27;0.27;;;;;;;10.14;87.91;99222.25;5076026;28;20205;-81
2022/09/20 05:13:26;;;;;;;0.30;0.30;;;;;;;10.45;87.40;99221.94;5075349;28;20206;-81
2022/09/20 05:16:02;;;;;;;0.20;0.20;;;;;;;10.72;86.94;99221.75;5074149;28;20705;-81
2022/09/20 05:19:00;;;;;;;0.10;0.10;;;;;;;11.04;85.42;99224.56;5074097;28;20217;-81
2022/09/20 05:21:44;;;;;;;0.23;0.23;;;;;;;11.28;84.22;99229.63;5074309;28;20226;-81
2022/09/20 05:24:32;;;;;;;0.50;0.50;;;;;;;11.43;83.13;99228.53;5074371;28;20214;-81
2022/09/20 05:27:15;;;;;;;1.37;1.13;;;;;;;11.52;82.71;99230.41;5077701;28;20238;-81
2022/09/20 05:29:51;;;;;;;1.37;0.83;;;;;;;11.38;83.10;99228.06;5077019;28;20205;-81
2022/09/20 05:32:24;;;;;;;4.00;2.13;;;;;;;11.31;83.04;99226.84;5077604;28;20289;-80
2022/09/20 05:34:59;;;;;;;7.20;3.03;;;;;;;11.32;83.02;99228.50;5076129;28;20244;-81
2022/09/20 05:37:40;;;;;;;7.77;3.70;;;;;;;11.43;82.75;99236.22;5076237;28;20194;-81
2022/09/20 05:40:23;;;;;;;2.37;1.70;;;;;;;11.41;83.20;99225.25;5074956;28;20651;-81
2022/09/20 05:42:56;;;;;;;2.53;1.70;;;;;;;11.64;83.91;99230.44;5074582;28;20679;-81
2022/09/20 05:45:47;;;;;;;4.80;0.77;;;;;;;11.72;81.29;99235.78;5074725;28;20230;-80
2022/09/20 05:48:18;;;;;;;0.93;0.70;;;;;;;11.92;81.63;99235.13;5073837;28;20676;-81
2022/09/20 05:50:55;;;;;;;1.97;1.00;;;;;;;12.23;80.53;99235.38;5073184;28;20222;-82
2022/09/20 05:53:50;;;;;;;0.87;0.87;;;;;;;12.35;79.89;99231.88;5073861;28;20764;-80
2022/09/20 05:56:33;;;;;;;4.60;3.20;;;;;;;12.73;78.89;99233.19;5077113;28;20466;-83
2022/09/20 05:59:24;;;;;;;1.30;0.80;;;;;;;12.90;77.84;99232.66;5073812;28;20602;-81
2022/09/20 06:02:10;;;;;;;0.63;0.50;;;;;;;13.07;76.84;99227.94;5074117;28;20218;-82
2022/09/20 06:04:46;;;;;;;1.70;1.23;;;;;;;13.11;75.02;99239.59;5074343;28;20202;-82
2022/09/20 06:07:21;;;;;;;1.40;1.00;;;;;;;13.20;75.39;99230.34;5073811;28;20225;-82
2022/09/20 06:10:14;;;;;;;0.60;0.60;;;;;;;13.54;75.18;99231.00;5073895;28;20202;-82
2022/09/20 06:12:52;;;;;;;0.80;0.73;;;;;;;13.52;74.35;99240.59;5073317;28;20229;-82
2022/09/20 06:15:26;;;;;;;0.50;0.50;;;;;;;13.33;74.51;99239.53;5072422;28;20214;-81
2022/09/20 06:18:01;;;;;;;1.00;0.93;;;;;;;13.34;73.78;99233.44;5072557;28;20190;-80
2022/09/20 06:20:33;;;;;;;0.73;0.57;;;;;;;13.39;74.84;99225.38;5073055;28;20214;-82
2022/09/20 06:23:04;;;;;;;1.17;0.90;;;;;;;13.40;74.74;99232.13;5077549;28;20262;-81
2022/09/20 06:25:41;;;;;;;0.67;0.67;;;;;;;13.95;74.50;99237.03;5073194;28;20218;-81
2022/09/20 06:28:16;;;;;;;0.27;0.27;;;;;;;13.89;73.20;99227.28;5073611;28;20234;-81
2022/09/20 06:30:46;;;;;;;0.60;0.57;;;;;;;13.89;72.52;99232.41;5073083;28;20227;-81
2022/09/20 06:33:16;;;;;;;0.67;0.67;;;;;;;13.72;72.28;99239.75;5073411;28;20195;-81
2022/09/20 06:35:48;;;;;;;0.50;0.50;;;;;;;13.70;72.82;99239.09;5073556;28;20223;-80
2022/09/20 06:41:30;;;;;;;0.20;0.20;;;;;;;13.73;72.26;99233.69;5072380;28;20209;-81
2022/09/20 06:43:59;;;;;;;0.67;0.67;;;;;;;13.84;72.34;99234.53;5072277;28;20204;-81
2022/09/20 06:46:27;;;;;;;0.70;0.47;;;;;;;14.04;72.34;99231.13;5072173;28;20272;-81
2022/09/20 06:48:55;;;;;;;0.50;0.50;;;;;;;14.49;70.75;99226.38;5072718;28;20207;-82
2022/09/20 06:51:22;;;;;;;0.53;0.40;;;;;;;14.78;70.03;99225.66;5074812;28;20230;-82
2022/09/20 06:53:50;;;;;;;0.67;0.50;;;;;;;15.16;68.50;99224.84;5074838;28;20225;-81
2022/09/20 06:56:21;;;;;;;0.83;0.73;;;;;;;15.43;67.13;99231.03;5074460;28;20228;-82
2022/09/20 06:58:50;;;;;;;0.33;0.33;;;;;;;15.52;66.85;99230.22;5074055;28;20228;-81
2022/09/20 07:01:17;;;;;;;0.90;0.53;;;;;;;15.53;65.66;99237.00;5073161;28;20214;-81
2022/09/20 07:03:44;;;;;;;0.30;0.30;;;;;;;15.89;66.06;99239.78;5071998;28;20205;-81
2022/09/20 07:06:12;;;;;;;0.30;0.30;;;;;;;15.83;62.85;99233.41;5071565;28;20218;-82
2022/09/20 07:08:39;;;;;;;0.40;0.40;;;;;;;16.17;64.77;99229.47;5071648;28;20300;-82
2022/09/20 07:11:08;;;;;;;0.63;0.53;;;;;;;16.55;62.33;99237.97;5071147;28;20309;-82
2022/09/20 07:13:35;;;;;;;0.50;0.50;;;;;;;16.46;61.21;99237.91;5071767;28;20214;-81
2022/09/20 07:16:06;;;;;;;2.27;1.20;;;;;;;16.67;60.04;99242.78;5071503;28;20301;-82
2022/09/20 07:18:34;;;;;;;0.80;0.50;;;;;;;16.63;61.47;99240.63;5073100;28;20214;-82
2022/09/20 07:21:01;;;;;;;0.73;0.60;;;;;;;17.02;61.74;99240.41;5073705;28;20308;-82
2022/09/20 07:23:30;;;;;;;6.40;3.20;;;;;;;17.40;59.42;99255.56;5072400;28;20199;-82
2022/09/20 07:25:58;;;;;;;0.60;0.60;;;;;;;17.32;58.16;99247.75;5071604;28;20260;-81
2022/09/20 07:28:25;;;;;;;4.57;2.23;;;;;;;17.51;56.24;99256.28;5072247;28;20268;-82
2022/09/20 07:30:52;;;;;;;2.20;1.43;;;;;;;17.60;56.60;99245.06;5071133;28;20221;-81
2022/09/20 07:33:23;;;;;;;1.20;0.60;;;;;;;17.70;56.88;99248.34;5071542;28;20221;-82
2022/09/20 07:35:53;;;;;;;0.87;0.63;;;;;;;17.77;54.60;99249.34;5070736;28;20216;-81
2022/09/20 07:38:21;;;;;;;0.40;0.40;;;;;;;17.93;54.91;99250.44;5070202;28;20681;-82
2022/09/20 07:40:55;;;;;;;0.50;0.47;;;;;;;17.94;54.21;99237.34;5071403;28;20224;-82
2022/09/20 07:43:22;;;;;;;1.70;1.10;;;;;;;18.30;55.01;99240.56;5071674;28;20203;-82
2022/09/20 07:45:54;;;;;;;0.60;0.60;;;;;;;18.13;54.97;99262.19;5072810;28;20219;-83
2022/09/20 07:48:24;;;;;;;0.47;0.40;;;;;;;18.24;53.50;99248.97;5074164;28;20346;-82
2022/09/20 07:50:51;;;;;;;0.77;0.70;;;;;;;18.42;53.27;99242.88;5072273;28;20227;-82
2022/09/20 07:53:18;;;;;;;1.43;0.63;;;;;;;18.44;53.52;99246.94;5073547;28;20574;-82
2022/09/20 07:55:57;;;;;;;1.00;0.57;;;;;;;18.74;54.09;99250.75;5071174;28;20223;-82
2022/09/20 07:58:24;;;;;;;0.60;0.60;;;;;;;18.74;50.99;99248.16;5071100;28;20209;-82
2022/09/20 08:00:52;;;;;;;1.87;1.40;;;;;;;18.94;54.39;99240.09;5070922;28;20220;-82
2022/09/20 08:03:19;;;;;;;1.43;0.90;;;;;;;18.51;51.65;99244.50;5070630;28;20604;-81
2022/09/20 08:05:48;;;;;;;1.90;0.87;;;;;;;18.67;53.39;99249.72;5071109;28;20216;-81
2022/09/20 08:08:15;;;;;;;0.60;0.57;;;;;;;18.71;53.00;99242.47;5070155;28;20261;-81
2022/09/20 08:10:42;;;;;;;0.60;0.60;;;;;;;18.95;52.29;99242.50;5071045;28;20221;-82
2022/09/20 08:13:09;;;;;;;0.40;0.40;;;;;;;19.25;52.40;99236.84;5071692;28;20277;-81
2022/09/20 08:15:36;;;;;;;0.50;0.50;;;;;;;19.52;52.15;99233.91;5072347;28;20225;-80
2022/09/20 08:18:03;;;;;;;0.57;0.57;;;;;;;19.53;50.85;99235.53;5072371;28;20262;-81
2022/09/20 08:20:30;;;;;;;0.50;0.40;;;;;;;19.59;51.25;99224.50;5071581;28;20641;-82
2022/09/20 08:23:00;;;;;;;0.60;0.60;;;;;;;19.69;49.84;99232.09;5072349;28;20584;-81
2022/09/20 08:25:26;;;;;;;0.50;0.50;;;;;;;19.86;49.44;99230.28;5070536;28;20234;-82
2022/09/20 08:27:54;;;;;;;0.30;0.30;;;;;;;19.49;50.38;99239.44;5071063;28;20234;-83
2022/09/20 08:30:22;;;;;;;0.37;0.37;;;;;;;19.37;49.57;99227.75;5071027;28;20733;-81
2022/09/20 08:32:48;;;;;;;0.40;0.40;;;;;;;19.38;51.27;99226.81;5071657;28;20221;-80
2022/09/20 08:35:16;;;;;;;0.30;0.30;;;;;;;19.61;50.64;99226.94;5071415;28;20219;-81
2022/09/20 08:37:44;;;;;;;0.40;0.40;;;;;;;19.53;50.22;99225.16;5070826;28;20209;-81
2022/09/20 08:40:14;;;;;;;0.43;0.43;;;;;;;19.58;50.78;99225.47;5072217;28;20248;-82
2022/09/20 08:42:43;;;;;;;0.43;0.40;;;;;;;19.87;49.71;99221.53;5072626;28;20668;-82
2022/09/20 08:45:15;;;;;;;0.40;0.40;;;;;;;19.61;48.53;99232.13;5071528;28;20227;-81
2022/09/20 08:47:48;;;;;;;0.50;0.50;;;;;;;19.53;48.37;99230.34;5072539;28;20248;-81
2022/09/20 08:50:15;;;;;;;0.30;0.30;;;;;;;19.49;49.69;99223.88;5076474;28;20247;-81
2022/09/20 08:52:46;;;;;;;0.30;0.27;;;;;;;19.17;49.78;99224.72;5074367;28;20210;-81
2022/09/20 08:55:18;;;;;;;0.40;0.40;;;;;;;19.55;49.78;99223.22;5075498;28;20231;-82
2022/09/20 08:57:49;;;;;;;0.40;0.40;;;;;;;20.02;49.30;99225.06;5074714;28;20380;-81
2022/09/20 09:00:18;;;;;;;0.33;0.33;;;;;;;19.96;47.44;99220.53;5074299;28;20228;-81
2022/09/20 09:02:45;;;;;;;0.50;0.50;;;;;;;20.05;48.02;99213.53;5073769;28;20200;-82
2022/09/20 09:05:32;;;;;;;2.50;1.40;;;;;;;19.78;48.23;99206.94;5076008;28;20218;-82
2022/09/20 09:08:00;;;;;;;1.33;1.00;;;;;;;20.28;47.46;99208.41;5076434;28;20246;-81
2022/09/20 09:10:35;;;;;;;2.80;1.27;;;;;;;20.48;48.52;99204.38;5077656;28;20224;-82
2022/09/20 09:13:03;;;;;;;0.57;0.57;;;;;;;20.50;47.56;99202.41;5077155;28;20629;-81
2022/09/20 09:15:33;;;;;;;0.50;0.50;;;;;;;20.99;48.41;99191.69;5074378;28;20234;-82
2022/09/20 09:18:00;;;;;;;0.50;0.50;;;;;;;21.13;45.36;99191.91;5075552;28;20205;-81
2022/09/20 09:20:27;;;;;;;0.73;0.73;;;;;;;21.18;45.18;99185.19;5074855;28;20226;-81
2022/09/20 09:23:03;;;;;;;0.40;0.30;;;;;;;20.77;47.48;99192.53;5074663;28;20202;-82
2022/09/20 09:29:17;;;;;;;0.30;0.30;;;;;;;20.84;46.36;99177.84;5073828;28;20215;-81
2022/09/20 09:31:45;;;;;;;0.50;0.50;;;;;;;21.15;45.19;99179.56;5073681;28;20214;-82
2022/09/20 09:34:27;;;;;;;0.40;0.40;;;;;;;20.94;47.77;99177.59;5073352;28;20211;-82
2022/09/20 09:36:55;;;;;;;0.80;0.80;;;;;;;21.35;45.02;99180.66;5077900;28;20223;-82
2022/09/20 09:39:25;;;;;;;0.37;0.37;;;;;;;21.50;44.61;99177.25;5076884;28;20203;-82
2022/09/20 09:41:52;;;;;;;0.40;0.40;;;;;;;20.89;45.64;99175.53;5074876;28;20218;-82
2022/09/20 09:44:24;;;;;;;0.80;0.73;;;;;;;20.29;45.60;99184.03;5075243;28;20202;-82
2022/09/20 09:46:52;;;;;;;0.90;0.67;;;;;;;20.20;46.42;99179.88;5074873;28;20222;-83
2022/09/20 09:49:22;;;;;;;0.73;0.70;;;;;;;20.10;45.68;99174.88;5074068;28;20311;-82
2022/09/20 09:52:02;;;;;;;9.80;5.63;;;;;;;19.92;44.86;99180.31;5073532;28;20228;-82
2022/09/20 09:54:31;;;;;;;0.80;0.80;;;;;;;20.00;45.28;99185.47;5073540;28;20395;-82
2022/09/20 09:57:10;;;;;;;0.40;0.40;;;;;;;20.33;44.74;99180.09;5072570;28;20708;-83
2022/09/20 09:59:51;;;;;;;0.43;0.43;;;;;;;21.03;46.53;99174.78;5074058;28;20233;-83
2022/09/20 10:02:46;;;;;;;0.40;0.40;;;;;;;20.83;43.80;99168.44;5077402;28;20190;-82
2022/09/20 10:05:20;;;;;;;0.20;0.20;;;;;;;21.18;45.99;99168.81;5070494;28;20615;-83
2022/09/20 10:07:54;;;;;;;0.37;0.37;;;;;;;21.62;45.74;99170.66;5074991;28;20713;-83
2022/09/20 10:10:31;;;;;;;0.57;0.57;;;;;;;21.84;42.80;99174.13;5072903;28;20683;-82
2022/09/20 10:13:10;;;;;;;0.60;0.60;;;;;;;21.90;43.34;99163.81;5073336;28;20237;-82
2022/09/20 10:15:45;;;;;;;0.20;0.20;;;;;;;20.98;44.07;99164.09;5072783;28;20615;-83
2022/09/20 10:18:33;;;;;;;0.40;0.40;;;;;;;20.70;45.71;99166.41;5073035;28;20208;-83
2022/09/20 10:21:08;;;;;;;0.30;0.30;;;;;;;20.17;45.07;99169.84;5072561;28;20585;-83
2022/09/20 10:23:59;;;;;;;0.40;0.40;;;;;;;20.58;46.48;99168.63;5072162;28;20202;-82
2022/09/20 10:26:42;;;;;;;0.20;0.20;;;;;;;20.88;45.66;99168.72;5071842;28;20221;-83
2022/09/20 10:29:20;;;;;;;0.20;0.20;;;;;;;21.21;43.00;99158.03;5072604;28;20257;-83
2022/09/20 10:32:01;;;;;;;0.30;0.30;;;;;;;20.91;43.98;99168.34;5072504;28;20257;-83
2022/09/20 10:34:50;;;;;;;0.27;0.27;;;;;;;20.62;43.49;99158.69;5072774;28;20659;-83
2022/09/20 10:37:28;;;;;;;0.20;0.20;;;;;;;20.60;45.20;99155.47;5073119;28;20564;-83
2022/09/20 10:40:07;;;;;;;0.20;0.20;;;;;;;21.03;41.98;99156.56;5072157;28;20210;-82
2022/09/20 10:45:37;;;;;;;0.33;0.33;;;;;;;21.73;41.09;99151.16;5071175;28;20222;-83
2022/09/20 10:48:12;;;;;;;0.33;0.33;;;;;;;22.07;42.55;99153.97;5071585;28;20341;-83
2022/09/20 10:50:45;;;;;;;0.40;0.40;;;;;;;22.09;42.09;99145.97;5071682;28;20286;-83
2022/09/20 10:53:37;;;;;;;0.30;0.30;;;;;;;22.24;41.24;99149.38;5071436;28;20657;-82
2022/09/20 10:56:17;;;;;;;0.30;0.30;;;;;;;21.82;41.61;99148.28;5071303;28;20226;-83
2022/09/20 10:59:15;;;;;;;0.30;0.30;;;;;;;21.59;43.66;99145.00;5071880;28;20203;-83
2022/09/20 11:01:53;;;;;;;0.33;0.33;;;;;;;22.12;43.57;99145.63;5072804;28;20229;-83
2022/09/20 11:04:49;;;;;;;0.50;0.50;;;;;;;22.46;39.38;99136.38;5072421;28;20626;-83
2022/09/20 11:07:19;;;;;;;0.40;0.40;;;;;;;22.05;39.38;99139.50;5072003;28;20672;-83
2022/09/20 11:09:52;;;;;;;0.30;0.30;;;;;;;21.45;41.65;99138.78;5072047;28;20635;-83
2022/09/20 11:12:27;;;;;;;0.27;0.27;;;;;;;20.81;42.17;99141.81;5070940;28;20202;-82
2022/09/20 11:14:58;;;;;;;0.90;0.57;;;;;;;20.43;44.42;99144.34;5071366;28;20196;-83
2022/09/20 11:17:30;;;;;;;0.20;0.20;;;;;;;20.39;44.82;99135.31;5071150;28;20242;-83
2022/09/20 11:20:02;;;;;;;0.30;0.30;;;;;;;20.51;45.15;99136.50;5071266;28;20207;-82
2022/09/20 11:22:38;;;;;;;1.80;0.57;;;;;;;20.29;43.18;99132.09;5070662;28;20209;-83
2022/09/20 11:25:15;;;;;;;0.60;0.60;;;;;;;20.68;46.17;99120.81;5071065;28;20288;-83
2022/09/20 11:27:46;;;;;;;0.30;0.30;;;;;;;21.17;43.58;99125.56;5071307;28;20202;-83
2022/09/20 11:30:17;;;;;;;0.50;0.50;;;;;;;21.50;44.50;99120.03;5071122;28;20228;-83
2022/09/20 11:32:51;;;;;;;0.40;0.40;;;;;;;21.10;43.00;99119.47;5070718;28;20210;-83
2022/09/20 11:35:29;;;;;;;0.40;0.40;;;;;;;20.80;43.37;99124.63;5071965;28;20225;-83
2022/09/20 11:38:10;;;;;;;0.30;0.30;;;;;;;20.84;45.04;99112.09;5070978;28;20207;-83
2022/09/20 11:40:41;;;;;;;0.30;0.30;;;;;;;20.90;42.80;99113.97;5070548;28;20229;-82
2022/09/20 11:43:10;;;;;;;0.10;0.10;;;;;;;21.09;41.70;99107.44;5070889;28;20217;-82
2022/09/20 11:45:41;;;;;;;0.10;0.10;;;;;;;21.07;41.09;99104.22;5070804;28;20592;-83
2022/09/20 11:48:14;;;;;;;0.40;0.40;;;;;;;21.35;40.37;99097.44;5071045;28;20225;-83
2022/09/20 11:51:24;;;;;;;0.27;0.27;;;;;;;21.15;41.61;99101.56;5070724;28;20576;-83
2022/09/20 11:54:07;;;;;;;0.20;0.20;;;;;;;20.57;41.08;99104.66;5070703;28;20697;-83
2022/09/20 11:56:34;;;;;;;0.40;0.30;;;;;;;20.02;42.74;99092.69;5070719;28;20294;-83
2022/09/20 11:59:03;;;;;;;0.30;0.30;;;;;;;20.44;43.97;99104.41;5071425;28;20241;-83
2022/09/20 12:01:32;;;;;;;0.30;0.30;;;;;;;20.45;43.03;99100.00;5071381;28;20214;-83
2022/09/20 12:04:02;;;;;;;0.30;0.30;;;;;;;20.23;43.39;99096.44;5070705;28;20210;-83
2022/09/20 12:06:34;;;;;;;0.20;0.20;;;;;;;19.93;44.34;99101.50;5070921;28;20232;-83
2022/09/20 12:09:04;;;;;;;0.30;0.30;;;;;;;19.64;45.26;99089.13;5070906;28;20229;-83
2022/09/20 12:11:34;;;;;;;0.33;0.33;;;;;;;19.80;43.92;99091.66;5070941;28;20302;-82
2022/09/20 12:14:05;;;;;;;0.60;0.60;;;;;;;19.81;43.49;99082.09;5071301;28;20201;-82
2022/09/20 12:16:40;;;;;;;0.40;0.40;;;;;;;19.61;43.76;99094.66;5070153;28;20699;-83
2022/09/20 12:19:11;;;;;;;0.20;0.20;;;;;;;19.31;44.01;99096.19;5070857;28;20277;-82
2022/09/20 12:22:27;;;;;;;0.50;0.50;;;;;;;19.18;44.34;99094.13;5070073;28;20278;-82
2022/09/20 12:25:34;;;;;;;0.30;0.30;;;;;;;19.36;44.98;99099.09;5047150;28;20650;-83
2022/09/20 12:28:01;;;;;;;0.50;0.50;;;;;;;19.05;44.65;99099.81;5075449;28;20204;-83
2022/09/20 12:30:32;;;;;;;0.40;0.40;;;;;;;18.84;44.94;99099.53;5076523;28;20228;-83
2022/09/20 12:33:01;;;;;;;0.30;0.30;;;;;;;18.73;44.68;99093.72;5075469;28;20286;-83
2022/09/20 12:35:59;;;;;;;0.33;0.33;;;;;;;18.63;45.05;99103.41;5075219;28;20223;-83
2022/09/20 12:38:41;;;;;;;1.23;0.53;;;;;;;18.54;45.40;99099.19;5074268;28;20207;-82